Terminal Aerodrome Forecast
Issued by NWS

Home | Current Version | Previous Version | Text Only | Print | Product List | Glossary On
Versions: 1 2 3 4 5 6 7 8 9 10 11 12 13 14 15 16 17 18 19 20 21 22 23
000
FTUS44 KLIX 012300
TAFHDC
TAF
KHDC 012322Z 0200/0224 23007KT P6SM SCT030 OVC050
      TEMPO 0200/0202 4SM -SHRA BKN030
     FM020200 25007KT P6SM OVC020
      TEMPO 0202/0205 4SM -SHRA
     FM020700 32012KT P6SM OVC025
     FM020900 32012KT P6SM BKN035
     FM021100 33011KT P6SM SCT080
     FM022200 35007KT P6SM FEW250=

USA.gov is the U.S. government's official web portal to all federal, state and local government web resources and services.